Michigan — WDF5344 — position and weather

sailwx.info

Track history (hours):
 
Tides and Currents Weather Stations Pressure Air Temp Water Temp Dewpoint Dewpoint Depression Visibility Wind Speed Wind Dir Waves Ship Positions

Michigan

Owner: GATX Third Aircraft Corporation, San Francisco, CA. More information available from US FCC via Universal Licensing System and Coast Guard Vessel Documentation Center.

Last reported at 2014-Nov-25 12:00 UTC. Time now 2014-Nov-25 20:53 UTC.
Position N 45°30' W 087°00'.

Length 144 m.

Type: Ship (hazmat cat D). MMSI: 303583000.

Wind from 300 at 16 knots

Barometer 1009.1 mb
Air temperature -3.3 ° C
Visibility: greater than 2.2 NM

Date/timePositionNaut miles runAvg speedWind from/ knotsBaromVisibWave heightAir tempDewpointWater temp
2014-Nov-25 12:00N 45°30' W 087°00'0 0.0 300 / 161009.1 2.2 -3.3
2014-Nov-25 09:00N 45°30' W 087°00'0 0.0 290 / 141006.7 1.1 1.1
2014-Nov-25 07:00N 45°30' W 087°00'0 0.0 290 / 71004.7 2.2 -0.0
2014-Nov-25 01:00N 45°30' W 087°00'0 0.0 300 / 14997.6 0.1 -1.1
2014-Nov-24 21:00N 45°30' W 087°00'0 0.0 340 / 26991.810.8 1.1
2014-Nov-24 20:00N 45°30' W 087°00'38 2.3 350 / 27989.810.8 1.6
2014-Nov-24 03:33N 45°40' W 086°07'1010.4
2014-Nov-24 02:33N 45°46' W 085°54'1010.3
2014-Nov-24 01:33N 45°51' W 085°41'1010.4
2014-Nov-24 00:33N 45°53' W 085°27'7 6.8
2014-Nov-23 23:33N 45°53' W 085°17'9 9.3
2014-Nov-23 22:33N 45°51' W 085°04'1010.2
2014-Nov-23 21:33N 45°46' W 084°52'0 0.1
2014-Nov-23 20:33N 45°46' W 084°52'2239.1
2014-Nov-23 20:00N 45°30' W 084°30'2249.9 180 / 101005.7 5.4 8.8
2014-Nov-23 19:33N 45°46' W 084°52'24764436.6
2014-Nov-23 19:00N 04°30' W 084°30'24765669.9 180 / 81006.0 8.8
2014-Nov-23 18:33N 45°46' W 084°52'0 0.0
2014-Nov-23 17:33N 45°46' W 084°52'0 0.0
2014-Nov-23 16:33N 45°46' W 084°52'0 0.3
2014-Nov-23 15:33N 45°46' W 084°52'4 3.9
2014-Nov-23 14:33N 45°50' W 084°51'8 7.7
2014-Nov-23 13:33N 45°48' W 084°40'1111.1
2014-Nov-23 12:33N 45°42' W 084°27'3 2.9
2014-Nov-23 11:31N 45°39' W 084°28'0 0.0
2014-Nov-23 10:31N 45°39' W 084°28'0 0.0
2014-Nov-23 09:31N 45°39' W 084°28'0 0.0
2014-Nov-23 08:31N 45°39' W 084°28'0 0.0
2014-Nov-23 07:31N 45°39' W 084°28'0 0.0
2014-Nov-23 06:31N 45°39' W 084°28'0 0.0
2014-Nov-23 05:25N 45°39' W 084°28'0 0.0
2014-Nov-23 04:31N 45°39' W 084°28'0 0.0
2014-Nov-23 03:31N 45°39' W 084°28'0 0.0
2014-Nov-23 02:31N 45°39' W 084°28'0 0.0
2014-Nov-23 01:25N 45°39' W 084°28'1738.6
2014-Nov-23 01:00N 45°24' W 084°18'1735.2 210 / 61009.4 0.3 4.4
2014-Nov-23 00:31N 45°39' W 084°28'0 0.0
2014-Nov-22 23:31N 45°39' W 084°28'0 0.0
2014-Nov-22 22:31N 45°39' W 084°28'0 0.0
2014-Nov-22 21:19N 45°39' W 084°28'0 0.0
2014-Nov-22 20:31N 45°39' W 084°28'1731.3
2014-Nov-22 20:00N 45°24' W 084°18'1735.3 210 / 61009.8 5.4 -1.1
2014-Nov-22 19:31N 45°39' W 084°28'0 0.0
2014-Nov-22 18:31N 45°39' W 084°28'0 0.0
2014-Nov-22 17:25N 45°39' W 084°28'0 0.0
2014-Nov-22 16:31N 45°39' W 084°28'0 0.0
2014-Nov-22 15:31N 45°39' W 084°28'0 0.0
2014-Nov-22 14:31N 45°39' W 084°28'0 0.0
2014-Nov-22 13:31N 45°39' W 084°28'1731.3
2014-Nov-22 13:00N 45°24' W 084°18'1735.2 220 / 151012.510.8 2.2
2014-Nov-22 12:31N 45°39' W 084°28'0 0.0
2014-Nov-22 11:31N 45°39' W 084°28'0 0.0
2014-Nov-22 10:31N 45°39' W 084°28'0 0.0
2014-Nov-22 09:31N 45°39' W 084°28'0 0.0
2014-Nov-22 08:31N 45°39' W 084°28'0 0.0
2014-Nov-22 07:31N 45°39' W 084°28'0 0.0
2014-Nov-22 06:25N 45°39' W 084°28'0 0.0
2014-Nov-22 05:31N 45°39' W 084°28'0 0.0
2014-Nov-22 04:31N 45°39' W 084°28'0 0.0
2014-Nov-22 03:31N 45°39' W 084°28'0 0.0
2014-Nov-22 02:31N 45°39' W 084°28'0 0.0
2014-Nov-22 01:31N 45°39' W 084°28'0 0.0
2014-Nov-22 00:31N 45°39' W 084°28'0 0.0
2014-Nov-21 23:31N 45°39' W 084°28'0 0.0
2014-Nov-21 22:31N 45°39' W 084°28'0 0.0
2014-Nov-21 21:33N 45°39' W 084°28'0 0.0
2014-Nov-21 20:33N 45°39' W 084°28'0 0.0
2014-Nov-21 19:33N 45°39' W 084°28'0 0.0
2014-Nov-21 18:33N 45°39' W 084°28'0 0.0
2014-Nov-21 17:33N 45°39' W 084°28'24 5.3
2014-Nov-21 13:00N 45°30' W 085°00'13 6.3 280 / 181025.3 5.4 -4.4
2014-Nov-21 11:00N 45°30' W 085°18'82 6.3 290 / 171024.3 5.4 -6.6
2014-Nov-20 22:00N 45°12' W 087°12'11913.2 310 / 241016.5 5.4 -6.6
2014-Nov-20 13:00N 43°18' W 088°00'0 0.0 270 / 61013.210.8 -9.9
2014-Nov-20 11:00N 43°18' W 088°00'0 0.0 280 / 61012.5 -9.9
2014-Nov-20 00:00N 43°18' W 088°00'0 0.0 280 / 151009.1 -6.6
2014-Nov-19 13:00N 43°18' W 088°00'0 0.0 230 / 61009.1 0.5 -6.6
2014-Nov-19 12:00N 43°18' W 088°00'6012.0 180 / 61009.8 -6.6
2014-Nov-19 07:00N 44°18' W 088°00'6012.0 200 / 71014.8 -7.2
2014-Nov-19 02:00N 43°18' W 088°00'0 0.0 240 / 61016.2 -10.5
2014-Nov-19 00:00N 43°18' W 088°00'0 0.0 270 / 81015.9 -10.5
2014-Nov-18 23:00N 43°18' W 088°00'6060.0 270 / 151015.9 -9.9
2014-Nov-18 22:00N 44°18' W 088°00'0 0.0 270 / 181014.8 -7.7
2014-Nov-18 19:00N 44°18' W 088°00'0 0.0 270 / 171013.5 -6.6
2014-Nov-18 17:00N 44°18' W 088°00'6020.0 280 / 17 -6.6
2014-Nov-18 14:00N 43°18' W 088°00'0 0.0 290 / 151012.810.8 -11.6
2014-Nov-18 12:00N 43°18' W 088°00'60 5.5 280 / 151011.1 -11.6
2014-Nov-18 01:00N 44°18' W 088°00'0 0.0 280 / 201009.4 -9.9
2014-Nov-18 00:00N 44°18' W 088°00'0 0.0 280 / 151009.4 -9.9
2014-Nov-17 20:00N 44°18' W 088°00'0 0.0 270 / 281007.4 -7.2
2014-Nov-17 18:00N 44°18' W 088°00'0 0.0 270 / 12 -6.6
2014-Nov-17 17:00N 44°18' W 088°00'0 0.0 300 / 151009.110.8 -6.6
2014-Nov-17 07:00N 44°18' W 088°00'0 0.0 270 / 8 -7.7
2014-Nov-17 06:00N 44°18' W 088°00'0 0.0 270 / 121009.1 -7.2
2014-Nov-17 04:00N 44°18' W 088°00'0 0.0 240 / 71010.8 5.4 -6.6
2014-Nov-17 02:00N 44°18' W 088°00'   240 / 51012.1 5.4 -4.4
Track history (hours):
 
Tides and Currents Weather Stations Pressure Air Temp Water Temp Dewpoint Dewpoint Depression Visibility Wind Speed Wind Dir Waves Ship Positions

Michigan

Owner: GATX Third Aircraft Corporation, San Francisco, CA. More information available from US FCC via Universal Licensing System and Coast Guard Vessel Documentation Center.

Last reported at 2014-Nov-25 12:00 UTC. Time now 2014-Nov-25 20:53 UTC.
Position N 45°30' W 087°00'.

Length 144 m.

Type: Ship (hazmat cat D). MMSI: 303583000.

Wind from 300 at 16 knots

Barometer 1009.1 mb
Air temperature -3.3 ° C
Visibility: greater than 2.2 NM

Date/timePositionNaut miles runAvg speedWind from/ knotsBaromVisibWave heightAir tempDewpointWater temp
2014-Nov-25 12:00N 45°30' W 087°00'0 0.0 300 / 161009.1 2.2 -3.3
2014-Nov-25 09:00N 45°30' W 087°00'0 0.0 290 / 141006.7 1.1 1.1
2014-Nov-25 07:00N 45°30' W 087°00'0 0.0 290 / 71004.7 2.2 -0.0
2014-Nov-25 01:00N 45°30' W 087°00'0 0.0 300 / 14997.6 0.1 -1.1
2014-Nov-24 21:00N 45°30' W 087°00'0 0.0 340 / 26991.810.8 1.1
2014-Nov-24 20:00N 45°30' W 087°00'38 2.3 350 / 27989.810.8 1.6
2014-Nov-24 03:33N 45°40' W 086°07'1010.4
2014-Nov-24 02:33N 45°46' W 085°54'1010.3
2014-Nov-24 01:33N 45°51' W 085°41'1010.4
2014-Nov-24 00:33N 45°53' W 085°27'7 6.8
2014-Nov-23 23:33N 45°53' W 085°17'9 9.3
2014-Nov-23 22:33N 45°51' W 085°04'1010.2
2014-Nov-23 21:33N 45°46' W 084°52'0 0.1
2014-Nov-23 20:33N 45°46' W 084°52'2239.1
2014-Nov-23 20:00N 45°30' W 084°30'2249.9 180 / 101005.7 5.4 8.8
2014-Nov-23 19:33N 45°46' W 084°52'24764436.6
2014-Nov-23 19:00N 04°30' W 084°30'24765669.9 180 / 81006.0 8.8
2014-Nov-23 18:33N 45°46' W 084°52'0 0.0
2014-Nov-23 17:33N 45°46' W 084°52'0 0.0
2014-Nov-23 16:33N 45°46' W 084°52'0 0.3
2014-Nov-23 15:33N 45°46' W 084°52'4 3.9
2014-Nov-23 14:33N 45°50' W 084°51'8 7.7
2014-Nov-23 13:33N 45°48' W 084°40'1111.1
2014-Nov-23 12:33N 45°42' W 084°27'3 2.9
2014-Nov-23 11:31N 45°39' W 084°28'0 0.0
2014-Nov-23 10:31N 45°39' W 084°28'0 0.0
2014-Nov-23 09:31N 45°39' W 084°28'0 0.0
2014-Nov-23 08:31N 45°39' W 084°28'0 0.0
2014-Nov-23 07:31N 45°39' W 084°28'0 0.0
2014-Nov-23 06:31N 45°39' W 084°28'0 0.0
2014-Nov-23 05:25N 45°39' W 084°28'0 0.0
2014-Nov-23 04:31N 45°39' W 084°28'0 0.0
2014-Nov-23 03:31N 45°39' W 084°28'0 0.0
2014-Nov-23 02:31N 45°39' W 084°28'0 0.0
2014-Nov-23 01:25N 45°39' W 084°28'1738.6
2014-Nov-23 01:00N 45°24' W 084°18'1735.2 210 / 61009.4 0.3 4.4
2014-Nov-23 00:31N 45°39' W 084°28'0 0.0
2014-Nov-22 23:31N 45°39' W 084°28'0 0.0
2014-Nov-22 22:31N 45°39' W 084°28'0 0.0
2014-Nov-22 21:19N 45°39' W 084°28'0 0.0
2014-Nov-22 20:31N 45°39' W 084°28'1731.3
2014-Nov-22 20:00N 45°24' W 084°18'1735.3 210 / 61009.8 5.4 -1.1
2014-Nov-22 19:31N 45°39' W 084°28'0 0.0
2014-Nov-22 18:31N 45°39' W 084°28'0 0.0
2014-Nov-22 17:25N 45°39' W 084°28'0 0.0
2014-Nov-22 16:31N 45°39' W 084°28'0 0.0
2014-Nov-22 15:31N 45°39' W 084°28'0 0.0
2014-Nov-22 14:31N 45°39' W 084°28'0 0.0
2014-Nov-22 13:31N 45°39' W 084°28'1731.3
2014-Nov-22 13:00N 45°24' W 084°18'1735.2 220 / 151012.510.8 2.2
2014-Nov-22 12:31N 45°39' W 084°28'0 0.0
2014-Nov-22 11:31N 45°39' W 084°28'0 0.0
2014-Nov-22 10:31N 45°39' W 084°28'0 0.0
2014-Nov-22 09:31N 45°39' W 084°28'0 0.0
2014-Nov-22 08:31N 45°39' W 084°28'0 0.0
2014-Nov-22 07:31N 45°39' W 084°28'0 0.0
2014-Nov-22 06:25N 45°39' W 084°28'0 0.0
2014-Nov-22 05:31N 45°39' W 084°28'0 0.0
2014-Nov-22 04:31N 45°39' W 084°28'0 0.0
2014-Nov-22 03:31N 45°39' W 084°28'0 0.0
2014-Nov-22 02:31N 45°39' W 084°28'0 0.0
2014-Nov-22 01:31N 45°39' W 084°28'0 0.0
2014-Nov-22 00:31N 45°39' W 084°28'0 0.0
2014-Nov-21 23:31N 45°39' W 084°28'0 0.0
2014-Nov-21 22:31N 45°39' W 084°28'0 0.0
2014-Nov-21 21:33N 45°39' W 084°28'0 0.0
2014-Nov-21 20:33N 45°39' W 084°28'0 0.0
2014-Nov-21 19:33N 45°39' W 084°28'0 0.0
2014-Nov-21 18:33N 45°39' W 084°28'0 0.0
2014-Nov-21 17:33N 45°39' W 084°28'24 5.3
2014-Nov-21 13:00N 45°30' W 085°00'13 6.3 280 / 181025.3 5.4 -4.4
2014-Nov-21 11:00N 45°30' W 085°18'82 6.3 290 / 171024.3 5.4 -6.6
2014-Nov-20 22:00N 45°12' W 087°12'11913.2 310 / 241016.5 5.4 -6.6
2014-Nov-20 13:00N 43°18' W 088°00'0 0.0 270 / 61013.210.8 -9.9
2014-Nov-20 11:00N 43°18' W 088°00'0 0.0 280 / 61012.5 -9.9
2014-Nov-20 00:00N 43°18' W 088°00'0 0.0 280 / 151009.1 -6.6
2014-Nov-19 13:00N 43°18' W 088°00'0 0.0 230 / 61009.1 0.5 -6.6
2014-Nov-19 12:00N 43°18' W 088°00'6012.0 180 / 61009.8 -6.6
2014-Nov-19 07:00N 44°18' W 088°00'6012.0 200 / 71014.8 -7.2
2014-Nov-19 02:00N 43°18' W 088°00'0 0.0 240 / 61016.2 -10.5
2014-Nov-19 00:00N 43°18' W 088°00'0 0.0 270 / 81015.9 -10.5
2014-Nov-18 23:00N 43°18' W 088°00'6060.0 270 / 151015.9 -9.9
2014-Nov-18 22:00N 44°18' W 088°00'0 0.0 270 / 181014.8 -7.7
2014-Nov-18 19:00N 44°18' W 088°00'0 0.0 270 / 171013.5 -6.6
2014-Nov-18 17:00N 44°18' W 088°00'6020.0 280 / 17 -6.6
2014-Nov-18 14:00N 43°18' W 088°00'0 0.0 290 / 151012.810.8 -11.6
2014-Nov-18 12:00N 43°18' W 088°00'60 5.5 280 / 151011.1 -11.6
2014-Nov-18 01:00N 44°18' W 088°00'0 0.0 280 / 201009.4 -9.9
2014-Nov-18 00:00N 44°18' W 088°00'0 0.0 280 / 151009.4 -9.9
2014-Nov-17 20:00N 44°18' W 088°00'0 0.0 270 / 281007.4 -7.2
2014-Nov-17 18:00N 44°18' W 088°00'0 0.0 270 / 12 -6.6
2014-Nov-17 17:00N 44°18' W 088°00'0 0.0 300 / 151009.110.8 -6.6
2014-Nov-17 07:00N 44°18' W 088°00'0 0.0 270 / 8 -7.7
2014-Nov-17 06:00N 44°18' W 088°00'0 0.0 270 / 121009.1 -7.2
2014-Nov-17 04:00N 44°18' W 088°00'0 0.0 240 / 71010.8 5.4 -6.6
2014-Nov-17 02:00N 44°18' W 088°00'   240 / 51012.1 5.4 -4.4

Dump ship's entire track history